Airfield :
LOGIN :

Register | Disclaimer

   EN    FR    IT 

 










Legend :    VFR   Marginal VFR   IFR   Intensive IFR   Very Intensive IFR
Visi :
Ceiling :
>= 8 km
>= 3000ft
5 to 8 km
1000 to 3000 ft
1500m to 5 km
500 to 1000 ft
800 to 1500m
200 to 500 ft
< 800m
< 200 ft
Symbols :   Thunderstorms  Fog  Heavy snow  Heavy precipitations  Wind > 20 kt
SIGMETs :     Misc.  Thunderstorms  Icing  Turbulence  Mountain Waves  Volcanic Ashes






- Airport Elevation : 1197 ft
- IATA code : SPM


ETAD - Spangdahlem Ab

CURRENT METAR :
  • 141756Z AUTO 03005KT 9999 FEW150 03/01 A2955 RMK AO2 SLP011 T00300007 10055 20030 55005 $

EXPIRED METARs :
  • 141726Z AUTO 03003KT 9999 SCT022 BKN120 BKN150 03/01 A2956 RMK AO2 SLP014 $
  • 141711Z AUTO 06003KT 9999 BKN022 04/01 A2956 RMK AO2 BKN V SCT SLP012 $
  • 141656Z AUTO 05003KT 9999 FEW024 04/00 A2956 RMK AO2 SLP012 T00360003 $
  • 141611Z AUTO 09003KT 9999 FEW049 FEW070 04/01 A2956 RMK AO2 SLP012 $

TAF TAF ETAD
Valid from the 14 at 13:00 until the 15 at 19:00 UTC


141300Z 1413/1519 16012KT 9999 BKN025 BKN110 QNH2952INS
BECMG 1417/1418 04006KT 9999 SCT020 BKN100 QNH2945INS
BECMG 1422/1423 05009KT 9999 SCT010 BKN100 QNH2938INS
BECMG 1506/1507 VRB06KT 9999 BKN020 OVC100 QNH2945INS
BECMG 1511/1512 18007KT 9999 SCT024 QNH2946INS TX06/1413Z TN03/1505Z



MET'MAP, your aeronautical weather chart ! - Copyright ORBIFLY December 2007 - Disclaimer

ORBIFLY MET'MAP TEAM :

Programming & Development : Alexandra Zaïnal
Concept & Development : Baudouin d'Aumeries
Co-Development & Prog : Marc-Olivier Méhu
Technical & hardware support : Manuel Goepfert

Contact : metmap@orbifly.com




SOURCES & CREDITS :

   NOAA